<?xml version='1.0' encoding='UTF-8'?>
<gpx xmlns="http://www.topografix.com/GPX/1/1" creator="www.balnam.be" version="1.1" xmlns:xsi="http://www.w3.org/2001/XMLSchema-instance" xsi:schemaLocation="http://www.topografix.com/GPX/1/1 http://www.topografix.com/GPX/1/1/gpx.xsd">
<trk>
<name>xmyhd1</name>
<cmt>s</cmt>
<desc>Hondelange Chemin n°1 Aire de Hondelange</desc>
<link href="https://chemins.be/hondelange/chemin/1"/><trkseg>
<trkpt lat="49.645226" lon="5.829969"><time>2026-05-03T07:12:03Z</time></trkpt>
<trkpt lat="49.640926" lon="5.828741"><time>2026-05-03T07:22:03Z</time></trkpt>
</trkseg></trk>
<trk>
<name>xmyhd1</name>
<cmt>v</cmt>
<desc>Hondelange Chemin n°1 Aire de Hondelange</desc>
<link href="https://chemins.be/hondelange/chemin/1"/><trkseg>
<trkpt lat="49.640926" lon="5.828741"><time>2026-05-03T07:22:03Z</time></trkpt>
<trkpt lat="49.640205" lon="5.829061"><time>2026-05-03T07:32:03Z</time></trkpt>
</trkseg></trk>
<trk>
<name>xmyhd1</name>
<cmt>r</cmt>
<desc>Hondelange Chemin n°1 Aire de Hondelange</desc>
<link href="https://chemins.be/hondelange/chemin/1"/><trkseg>
<trkpt lat="49.640205" lon="5.829061"><time>2026-05-03T07:32:03Z</time></trkpt>
<trkpt lat="49.636354" lon="5.831391"><time>2026-05-03T07:42:03Z</time></trkpt>
<trkpt lat="49.635309" lon="5.831407"><time>2026-05-03T07:52:03Z</time></trkpt>
<trkpt lat="49.632929" lon="5.832356"><time>2026-05-03T08:02:03Z</time></trkpt>
<trkpt lat="49.632487" lon="5.832362"><time>2026-05-03T08:12:03Z</time></trkpt>
<trkpt lat="49.631059" lon="5.832764"><time>2026-05-03T08:22:03Z</time></trkpt>
<trkpt lat="49.629617" lon="5.833354"><time>2026-05-03T08:32:03Z</time></trkpt>
<trkpt lat="49.628874" lon="5.834014"><time>2026-05-03T08:42:03Z</time></trkpt>
<trkpt lat="49.625349" lon="5.835591"><time>2026-05-03T08:52:03Z</time></trkpt>
<trkpt lat="49.624213" lon="5.835918"><time>2026-05-03T09:02:03Z</time></trkpt>
</trkseg></trk>
<trk>
<name>xmyhd1</name>
<cmt>s</cmt>
<desc>Hondelange Chemin n°1 Aire de Hondelange</desc>
<link href="https://chemins.be/hondelange/chemin/1"/><trkseg>
<trkpt lat="49.624213" lon="5.835918"><time>2026-05-03T09:02:03Z</time></trkpt>
<trkpt lat="49.623869" lon="5.836034"><time>2026-05-03T09:12:03Z</time></trkpt>
</trkseg></trk>
<trk>
<name>xmyhd1</name>
<cmt>d</cmt>
<desc>Hondelange Chemin n°1 Aire de Hondelange</desc>
<link href="https://chemins.be/hondelange/chemin/1"/><trkseg>
<trkpt lat="49.623869" lon="5.836034"><time>2026-05-03T09:12:03Z</time></trkpt>
<trkpt lat="49.623355" lon="5.836208"><time>2026-05-03T09:22:03Z</time></trkpt>
</trkseg></trk>
<trk>
<name>xmyhd1</name>
<cmt>v</cmt>
<desc>Hondelange Chemin n°1 Aire de Hondelange</desc>
<link href="https://chemins.be/hondelange/chemin/1"/><trkseg>
<trkpt lat="49.623355" lon="5.836208"><time>2026-05-03T09:22:03Z</time></trkpt>
<trkpt lat="49.619661" lon="5.836251"><time>2026-05-03T09:32:03Z</time></trkpt>
</trkseg>
</trk>
<trk>
<name>xmyhd10</name>
<cmt>d</cmt>
<desc>Hondelange Chemin n°10 </desc>
<link href="https://chemins.be/hondelange/chemin/10"/><trkseg>
<trkpt lat="49.634104" lon="5.795546"><time>2026-05-03T07:12:03Z</time></trkpt>
<trkpt lat="49.634895" lon="5.793140"><time>2026-05-03T07:22:03Z</time></trkpt>
<trkpt lat="49.634989" lon="5.789122"><time>2026-05-03T07:32:03Z</time></trkpt>
</trkseg>
</trk>
<trk>
<name>xmyhd12</name>
<cmt>v</cmt>
<desc>Hondelange Chemin n°12 Rue Marie-Delcourt</desc>
<link href="https://chemins.be/hondelange/chemin/12"/><trkseg>
<trkpt lat="49.661297" lon="5.806677"><time>2026-05-03T07:12:03Z</time></trkpt>
<trkpt lat="49.655138" lon="5.804510"><time>2026-05-03T07:22:03Z</time></trkpt>
<trkpt lat="49.653217" lon="5.804644"><time>2026-05-03T07:32:03Z</time></trkpt>
<trkpt lat="49.648910" lon="5.805137"><time>2026-05-03T07:42:03Z</time></trkpt>
<trkpt lat="49.648160" lon="5.805588"><time>2026-05-03T07:52:03Z</time></trkpt>
<trkpt lat="49.644798" lon="5.809042"><time>2026-05-03T08:02:03Z</time></trkpt>
<trkpt lat="49.644294" lon="5.808946"><time>2026-05-03T08:12:03Z</time></trkpt>
<trkpt lat="49.642992" lon="5.809000"><time>2026-05-03T08:22:03Z</time></trkpt>
<trkpt lat="49.641036" lon="5.807111"><time>2026-05-03T08:32:03Z</time></trkpt>
</trkseg>
</trk>
<trk>
<name>xmyhd14</name>
<cmt>v</cmt>
<desc>Hondelange Chemin n°14 Chemin de Stockem à Toernich</desc>
<link href="https://chemins.be/hondelange/chemin/14"/><trkseg>
<trkpt lat="49.658429" lon="5.798756"><time>2026-05-03T07:12:03Z</time></trkpt>
<trkpt lat="49.658421" lon="5.798115"><time>2026-05-03T07:22:03Z</time></trkpt>
<trkpt lat="49.658345" lon="5.797128"><time>2026-05-03T07:32:03Z</time></trkpt>
<trkpt lat="49.658498" lon="5.794945"><time>2026-05-03T07:42:03Z</time></trkpt>
<trkpt lat="49.658707" lon="5.794301"><time>2026-05-03T07:52:03Z</time></trkpt>
<trkpt lat="49.659217" lon="5.793773"><time>2026-05-03T08:02:03Z</time></trkpt>
<trkpt lat="49.660346" lon="5.792606"><time>2026-05-03T08:12:03Z</time></trkpt>
<trkpt lat="49.660882" lon="5.791964"><time>2026-05-03T08:22:03Z</time></trkpt>
<trkpt lat="49.661748" lon="5.789582"><time>2026-05-03T08:32:03Z</time></trkpt>
<trkpt lat="49.661530" lon="5.787215"><time>2026-05-03T08:42:03Z</time></trkpt>
<trkpt lat="49.661865" lon="5.785870"><time>2026-05-03T08:52:03Z</time></trkpt>
<trkpt lat="49.662141" lon="5.785312"><time>2026-05-03T09:02:03Z</time></trkpt>
<trkpt lat="49.662317" lon="5.784404"><time>2026-05-03T09:12:03Z</time></trkpt>
<trkpt lat="49.663441" lon="5.783487"><time>2026-05-03T09:22:03Z</time></trkpt>
</trkseg>
</trk>
<trk>
<name>xmyhd17</name>
<cmt>v</cmt>
<desc>Hondelange Chemin n°17 </desc>
<link href="https://chemins.be/hondelange/chemin/17"/><trkseg>
<trkpt lat="49.661311" lon="5.804445"><time>2026-05-03T07:12:03Z</time></trkpt>
<trkpt lat="49.661377" lon="5.805566"><time>2026-05-03T07:22:03Z</time></trkpt>
<trkpt lat="49.662040" lon="5.806264"><time>2026-05-03T07:32:03Z</time></trkpt>
<trkpt lat="49.661582" lon="5.806870"><time>2026-05-03T07:42:03Z</time></trkpt>
</trkseg>
</trk>
<trk>
<name>xmyhd18</name>
<cmt>v</cmt>
<desc>Hondelange Chemin n°18 </desc>
<link href="https://chemins.be/hondelange/chemin/18"/><trkseg>
<trkpt lat="49.628637" lon="5.845381"><time>2026-05-03T07:12:03Z</time></trkpt>
<trkpt lat="49.628655" lon="5.846904"><time>2026-05-03T07:22:03Z</time></trkpt>
<trkpt lat="49.628873" lon="5.849093"><time>2026-05-03T07:32:03Z</time></trkpt>
<trkpt lat="49.629269" lon="5.850971"><time>2026-05-03T07:42:03Z</time></trkpt>
<trkpt lat="49.628796" lon="5.851625"><time>2026-05-03T07:52:03Z</time></trkpt>
<trkpt lat="49.628877" lon="5.852945"><time>2026-05-03T08:02:03Z</time></trkpt>
<trkpt lat="49.628692" lon="5.857236"><time>2026-05-03T08:12:03Z</time></trkpt>
<trkpt lat="49.628282" lon="5.859243"><time>2026-05-03T08:22:03Z</time></trkpt>
<trkpt lat="49.627422" lon="5.860922"><time>2026-05-03T08:32:03Z</time></trkpt>
</trkseg></trk>
<trk>
<name>xmyhd18</name>
<cmt>q</cmt>
<desc>Hondelange Chemin n°18 </desc>
<link href="https://chemins.be/hondelange/chemin/18"/><trkseg>
<trkpt lat="49.627422" lon="5.860922"><time>2026-05-03T08:32:03Z</time></trkpt>
<trkpt lat="49.627080" lon="5.861249"><time>2026-05-03T08:42:03Z</time></trkpt>
</trkseg>
</trk>
<trk>
<name>xmyhd19</name>
<cmt>v</cmt>
<desc>Hondelange Chemin n°19 </desc>
<link href="https://chemins.be/hondelange/chemin/19"/><trkseg>
<trkpt lat="49.628581" lon="5.845317"><time>2026-05-03T07:12:03Z</time></trkpt>
<trkpt lat="49.628372" lon="5.846819"><time>2026-05-03T07:22:03Z</time></trkpt>
</trkseg></trk>
<trk>
<name>xmyhd19</name>
<cmt>q</cmt>
<desc>Hondelange Chemin n°19 </desc>
<link href="https://chemins.be/hondelange/chemin/19"/><trkseg>
<trkpt lat="49.628372" lon="5.846819"><time>2026-05-03T07:22:03Z</time></trkpt>
<trkpt lat="49.627643" lon="5.849791"><time>2026-05-03T07:32:03Z</time></trkpt>
<trkpt lat="49.627212" lon="5.850531"><time>2026-05-03T07:42:03Z</time></trkpt>
<trkpt lat="49.627108" lon="5.852065"><time>2026-05-03T07:52:03Z</time></trkpt>
<trkpt lat="49.626114" lon="5.854061"><time>2026-05-03T08:02:03Z</time></trkpt>
<trkpt lat="49.625593" lon="5.856754"><time>2026-05-03T08:12:03Z</time></trkpt>
</trkseg>
</trk>
<trk>
<name>xmyhd20</name>
<cmt>d</cmt>
<desc>Hondelange Chemin n°20 </desc>
<link href="https://chemins.be/hondelange/chemin/20"/><trkseg>
<trkpt lat="49.623841" lon="5.844469"><time>2026-05-03T07:12:03Z</time></trkpt>
<trkpt lat="49.623549" lon="5.844866"><time>2026-05-03T07:22:03Z</time></trkpt>
<trkpt lat="49.622534" lon="5.848986"><time>2026-05-03T07:32:03Z</time></trkpt>
</trkseg>
</trk>
<trk>
<name>xmyhd21</name>
<cmt>v</cmt>
<desc>Hondelange Chemin n°21 </desc>
<link href="https://chemins.be/hondelange/chemin/21"/><trkseg>
<trkpt lat="49.633809" lon="5.842559"><time>2026-05-03T07:12:03Z</time></trkpt>
<trkpt lat="49.634367" lon="5.843815"><time>2026-05-03T07:22:03Z</time></trkpt>
<trkpt lat="49.635004" lon="5.847023"><time>2026-05-03T07:32:03Z</time></trkpt>
</trkseg></trk>
<trk>
<name>xmyhd21</name>
<cmt>s</cmt>
<desc>Hondelange Chemin n°21 </desc>
<link href="https://chemins.be/hondelange/chemin/21"/><trkseg>
<trkpt lat="49.635004" lon="5.847023"><time>2026-05-03T07:32:03Z</time></trkpt>
<trkpt lat="49.635016" lon="5.847763"><time>2026-05-03T07:42:03Z</time></trkpt>
</trkseg></trk>
<trk>
<name>xmyhd21</name>
<cmt>v</cmt>
<desc>Hondelange Chemin n°21 </desc>
<link href="https://chemins.be/hondelange/chemin/21"/><trkseg>
<trkpt lat="49.635016" lon="5.847763"><time>2026-05-03T07:42:03Z</time></trkpt>
<trkpt lat="49.635023" lon="5.848718"><time>2026-05-03T07:52:03Z</time></trkpt>
<trkpt lat="49.636127" lon="5.850949"><time>2026-05-03T08:02:03Z</time></trkpt>
<trkpt lat="49.636322" lon="5.852634"><time>2026-05-03T08:12:03Z</time></trkpt>
</trkseg>
</trk>
<trk>
<name>xmyhd25</name>
<cmt>r</cmt>
<desc>Hondelange Chemin n°25 Rue des Rochers</desc>
<link href="https://chemins.be/hondelange/chemin/25"/><trkseg>
<trkpt lat="49.633471" lon="5.836492"><time>2026-05-03T07:12:03Z</time></trkpt>
<trkpt lat="49.633218" lon="5.836728"><time>2026-05-03T07:22:03Z</time></trkpt>
</trkseg></trk>
<trk>
<name>xmyhd25</name>
<cmt>v</cmt>
<desc>Hondelange Chemin n°25 Rue des Rochers</desc>
<link href="https://chemins.be/hondelange/chemin/25"/><trkseg>
<trkpt lat="49.633218" lon="5.836728"><time>2026-05-03T07:22:03Z</time></trkpt>
<trkpt lat="49.631755" lon="5.837157"><time>2026-05-03T07:32:03Z</time></trkpt>
</trkseg>
</trk>
<trk>
<name>xmyhd27</name>
<cmt>v</cmt>
<desc>Hondelange Chemin n°27 </desc>
<link href="https://chemins.be/hondelange/chemin/27"/><trkseg>
<trkpt lat="49.627172" lon="5.829263"><time>2026-05-03T07:12:03Z</time></trkpt>
<trkpt lat="49.626737" lon="5.828276"><time>2026-05-03T07:22:03Z</time></trkpt>
<trkpt lat="49.625379" lon="5.824432"><time>2026-05-03T07:32:03Z</time></trkpt>
<trkpt lat="49.624423" lon="5.823196"><time>2026-05-03T07:42:03Z</time></trkpt>
<trkpt lat="49.623311" lon="5.823179"><time>2026-05-03T07:52:03Z</time></trkpt>
<trkpt lat="49.622485" lon="5.822817"><time>2026-05-03T08:02:03Z</time></trkpt>
</trkseg></trk>
<trk>
<name>xmyhd27</name>
<cmt>q</cmt>
<desc>Hondelange Chemin n°27 </desc>
<link href="https://chemins.be/hondelange/chemin/27"/><trkseg>
<trkpt lat="49.622485" lon="5.822817"><time>2026-05-03T08:02:03Z</time></trkpt>
<trkpt lat="49.622018" lon="5.822834"><time>2026-05-03T08:12:03Z</time></trkpt>
<trkpt lat="49.620670" lon="5.821396"><time>2026-05-03T08:22:03Z</time></trkpt>
<trkpt lat="49.619858" lon="5.822125"><time>2026-05-03T08:32:03Z</time></trkpt>
</trkseg>
</trk>
<trk>
<name>xmyhd28</name>
<cmt>v</cmt>
<desc>Hondelange Chemin n°28 </desc>
<link href="https://chemins.be/hondelange/chemin/28"/><trkseg>
<trkpt lat="49.624201" lon="5.823062"><time>2026-05-03T07:12:03Z</time></trkpt>
<trkpt lat="49.624064" lon="5.822028"><time>2026-05-03T07:22:03Z</time></trkpt>
<trkpt lat="49.624164" lon="5.820963"><time>2026-05-03T07:32:03Z</time></trkpt>
<trkpt lat="49.624576" lon="5.819882"><time>2026-05-03T07:42:03Z</time></trkpt>
</trkseg>
</trk>
<trk>
<name>xmyhd29</name>
<cmt>v</cmt>
<desc>Hondelange Chemin n°29 </desc>
<link href="https://chemins.be/hondelange/chemin/29"/><trkseg>
<trkpt lat="49.622527" lon="5.822872"><time>2026-05-03T07:12:03Z</time></trkpt>
<trkpt lat="49.621637" lon="5.821833"><time>2026-05-03T07:22:03Z</time></trkpt>
<trkpt lat="49.621482" lon="5.821396"><time>2026-05-03T07:32:03Z</time></trkpt>
<trkpt lat="49.621159" lon="5.819610"><time>2026-05-03T07:42:03Z</time></trkpt>
</trkseg>
</trk>
<trk>
<name>xmyhd30</name>
<cmt>v</cmt>
<desc>Hondelange Chemin n°30 Rue du Moulin</desc>
<link href="https://chemins.be/hondelange/chemin/30"/><trkseg>
<trkpt lat="49.626716" lon="5.793441"><time>2026-05-03T07:12:03Z</time></trkpt>
<trkpt lat="49.626629" lon="5.792555"><time>2026-05-03T07:22:03Z</time></trkpt>
<trkpt lat="49.626471" lon="5.788806"><time>2026-05-03T07:32:03Z</time></trkpt>
<trkpt lat="49.625844" lon="5.787838"><time>2026-05-03T07:42:03Z</time></trkpt>
<trkpt lat="49.625218" lon="5.787688"><time>2026-05-03T07:52:03Z</time></trkpt>
<trkpt lat="49.624428" lon="5.788077"><time>2026-05-03T08:02:03Z</time></trkpt>
<trkpt lat="49.623478" lon="5.786396"><time>2026-05-03T08:12:03Z</time></trkpt>
</trkseg>
</trk>
<trk>
<name>xmyhd31</name>
<cmt>v</cmt>
<desc>Hondelange Chemin n°31 </desc>
<link href="https://chemins.be/hondelange/chemin/31"/><trkseg>
<trkpt lat="49.625845" lon="5.787906"><time>2026-05-03T07:12:03Z</time></trkpt>
<trkpt lat="49.625234" lon="5.785423"><time>2026-05-03T07:22:03Z</time></trkpt>
<trkpt lat="49.624335" lon="5.781618"><time>2026-05-03T07:32:03Z</time></trkpt>
</trkseg>
</trk>
<trk>
<name>xmyhd32</name>
<cmt>v</cmt>
<desc>Hondelange Chemin n°32 </desc>
<link href="https://chemins.be/hondelange/chemin/32"/><trkseg>
<trkpt lat="49.626456" lon="5.788841"><time>2026-05-03T07:12:03Z</time></trkpt>
<trkpt lat="49.626749" lon="5.787376"><time>2026-05-03T07:22:03Z</time></trkpt>
<trkpt lat="49.627981" lon="5.786718"><time>2026-05-03T07:32:03Z</time></trkpt>
<trkpt lat="49.628931" lon="5.783284"><time>2026-05-03T07:42:03Z</time></trkpt>
<trkpt lat="49.629453" lon="5.782960"><time>2026-05-03T07:52:03Z</time></trkpt>
<trkpt lat="49.629601" lon="5.782616"><time>2026-05-03T08:02:03Z</time></trkpt>
<trkpt lat="49.629677" lon="5.780495"><time>2026-05-03T08:12:03Z</time></trkpt>
</trkseg>
</trk>
<trk>
<name>xmyhd33</name>
<cmt>v</cmt>
<desc>Hondelange Chemin n°33 Rue du Moulin</desc>
<link href="https://chemins.be/hondelange/chemin/33"/><trkseg>
<trkpt lat="49.626680" lon="5.792752"><time>2026-05-03T07:12:03Z</time></trkpt>
<trkpt lat="49.628398" lon="5.789943"><time>2026-05-03T07:22:03Z</time></trkpt>
<trkpt lat="49.628880" lon="5.788978"><time>2026-05-03T07:32:03Z</time></trkpt>
<trkpt lat="49.629158" lon="5.788520"><time>2026-05-03T07:42:03Z</time></trkpt>
</trkseg>
</trk>
<trk>
<name>xmyhd35</name>
<cmt>v</cmt>
<desc>Hondelange Chemin n°35 </desc>
<link href="https://chemins.be/hondelange/chemin/35"/><trkseg>
<trkpt lat="49.666783" lon="5.800705"><time>2026-05-03T07:12:03Z</time></trkpt>
<trkpt lat="49.666353" lon="5.800487"><time>2026-05-03T07:22:03Z</time></trkpt>
<trkpt lat="49.665601" lon="5.799091"><time>2026-05-03T07:32:03Z</time></trkpt>
<trkpt lat="49.664550" lon="5.798698"><time>2026-05-03T07:42:03Z</time></trkpt>
<trkpt lat="49.663948" lon="5.798877"><time>2026-05-03T07:52:03Z</time></trkpt>
<trkpt lat="49.662452" lon="5.798476"><time>2026-05-03T08:02:03Z</time></trkpt>
<trkpt lat="49.661943" lon="5.797854"><time>2026-05-03T08:12:03Z</time></trkpt>
<trkpt lat="49.661547" lon="5.797961"><time>2026-05-03T08:22:03Z</time></trkpt>
<trkpt lat="49.660427" lon="5.797994"><time>2026-05-03T08:32:03Z</time></trkpt>
<trkpt lat="49.660001" lon="5.798899"><time>2026-05-03T08:42:03Z</time></trkpt>
</trkseg>
</trk>
<trk>
<name>xmyhd36</name>
<cmt>q</cmt>
<desc>Hondelange Sentier n°36 </desc>
<link href="https://chemins.be/hondelange/sentier/36"/><trkseg>
<trkpt lat="49.658484" lon="5.798399"><time>2026-05-03T07:12:03Z</time></trkpt>
<trkpt lat="49.656734" lon="5.796082"><time>2026-05-03T07:22:03Z</time></trkpt>
<trkpt lat="49.655970" lon="5.792241"><time>2026-05-03T07:32:03Z</time></trkpt>
<trkpt lat="49.654317" lon="5.788829"><time>2026-05-03T07:42:03Z</time></trkpt>
<trkpt lat="49.653706" lon="5.788872"><time>2026-05-03T07:52:03Z</time></trkpt>
<trkpt lat="49.653303" lon="5.786287"><time>2026-05-03T08:02:03Z</time></trkpt>
</trkseg>
</trk>
<trk>
<name>xmyhd37</name>
<cmt>v</cmt>
<desc>Hondelange Sentier n°37 </desc>
<link href="https://chemins.be/hondelange/sentier/37"/><trkseg>
<trkpt lat="49.636172" lon="5.797648"><time>2026-05-03T07:12:03Z</time></trkpt>
<trkpt lat="49.638118" lon="5.799129"><time>2026-05-03T07:22:03Z</time></trkpt>
<trkpt lat="49.638446" lon="5.799547"><time>2026-05-03T07:32:03Z</time></trkpt>
<trkpt lat="49.638999" lon="5.800256"><time>2026-05-03T07:42:03Z</time></trkpt>
<trkpt lat="49.640856" lon="5.801731"><time>2026-05-03T07:52:03Z</time></trkpt>
</trkseg></trk>
<trk>
<name>xmyhd37</name>
<cmt>d</cmt>
<desc>Hondelange Sentier n°37 </desc>
<link href="https://chemins.be/hondelange/sentier/37"/><trkseg>
<trkpt lat="49.640856" lon="5.801731"><time>2026-05-03T07:52:03Z</time></trkpt>
<trkpt lat="49.645641" lon="5.802042"><time>2026-05-03T08:02:03Z</time></trkpt>
<trkpt lat="49.645707" lon="5.802294"><time>2026-05-03T08:12:03Z</time></trkpt>
<trkpt lat="49.649034" lon="5.803512"><time>2026-05-03T08:22:03Z</time></trkpt>
<trkpt lat="49.650620" lon="5.803356"><time>2026-05-03T08:32:03Z</time></trkpt>
<trkpt lat="49.651316" lon="5.803882"><time>2026-05-03T08:42:03Z</time></trkpt>
<trkpt lat="49.652374" lon="5.804472"><time>2026-05-03T08:52:03Z</time></trkpt>
<trkpt lat="49.652520" lon="5.804719"><time>2026-05-03T09:02:03Z</time></trkpt>
</trkseg>
</trk>
<trk>
<name>xmyhd38</name>
<cmt>v</cmt>
<desc>Hondelange Sentier n°38 </desc>
<link href="https://chemins.be/hondelange/sentier/38"/><trkseg>
<trkpt lat="49.630722" lon="5.798979"><time>2026-05-03T07:12:03Z</time></trkpt>
<trkpt lat="49.630744" lon="5.798675"><time>2026-05-03T07:22:03Z</time></trkpt>
<trkpt lat="49.632803" lon="5.797920"><time>2026-05-03T07:32:03Z</time></trkpt>
</trkseg>
</trk>
<trk>
<name>xmyhd38bis</name>
<cmt>d</cmt>
<desc>Hondelange Sentier n°38bis </desc>
<link href="https://chemins.be/hondelange/sentier/38bis"/><trkseg>
<trkpt lat="49.638154" lon="5.799161"><time>2026-05-03T07:12:03Z</time></trkpt>
<trkpt lat="49.639119" lon="5.799054"><time>2026-05-03T07:22:03Z</time></trkpt>
<trkpt lat="49.640787" lon="5.800588"><time>2026-05-03T07:32:03Z</time></trkpt>
<trkpt lat="49.642010" lon="5.800481"><time>2026-05-03T07:42:03Z</time></trkpt>
<trkpt lat="49.644476" lon="5.799547"><time>2026-05-03T07:52:03Z</time></trkpt>
</trkseg></trk>
<trk>
<name>xmyhd38bis</name>
<cmt>v</cmt>
<desc>Hondelange Sentier n°38bis </desc>
<link href="https://chemins.be/hondelange/sentier/38bis"/><trkseg>
<trkpt lat="49.644476" lon="5.799547"><time>2026-05-03T07:52:03Z</time></trkpt>
<trkpt lat="49.647148" lon="5.799408"><time>2026-05-03T08:02:03Z</time></trkpt>
</trkseg></trk>
<trk>
<name>xmyhd38bis</name>
<cmt>q</cmt>
<desc>Hondelange Sentier n°38bis </desc>
<link href="https://chemins.be/hondelange/sentier/38bis"/><trkseg>
<trkpt lat="49.647148" lon="5.799408"><time>2026-05-03T08:02:03Z</time></trkpt>
<trkpt lat="49.648696" lon="5.799150"><time>2026-05-03T08:12:03Z</time></trkpt>
<trkpt lat="49.649655" lon="5.799944"><time>2026-05-03T08:22:03Z</time></trkpt>
<trkpt lat="49.650462" lon="5.799510"><time>2026-05-03T08:32:03Z</time></trkpt>
<trkpt lat="49.658594" lon="5.799539"><time>2026-05-03T08:42:03Z</time></trkpt>
</trkseg></trk>
<trk>
<name>xmyhd38bis</name>
<cmt>v</cmt>
<desc>Hondelange Sentier n°38bis </desc>
<link href="https://chemins.be/hondelange/sentier/38bis"/><trkseg>
<trkpt lat="49.658594" lon="5.799539"><time>2026-05-03T08:42:03Z</time></trkpt>
<trkpt lat="49.658793" lon="5.799476"><time>2026-05-03T08:52:03Z</time></trkpt>
</trkseg>
</trk>
<trk>
<name>xmyhd4</name>
<cmt>v</cmt>
<desc>Hondelange Chemin n°4 </desc>
<link href="https://chemins.be/hondelange/chemin/4"/><trkseg>
<trkpt lat="49.628107" lon="5.865809"><time>2026-05-03T07:12:03Z</time></trkpt>
<trkpt lat="49.629361" lon="5.864409"><time>2026-05-03T07:22:03Z</time></trkpt>
<trkpt lat="49.631132" lon="5.861506"><time>2026-05-03T07:32:03Z</time></trkpt>
<trkpt lat="49.632591" lon="5.858502"><time>2026-05-03T07:42:03Z</time></trkpt>
<trkpt lat="49.634640" lon="5.854808"><time>2026-05-03T07:52:03Z</time></trkpt>
<trkpt lat="49.635522" lon="5.854074"><time>2026-05-03T08:02:03Z</time></trkpt>
<trkpt lat="49.636310" lon="5.852607"><time>2026-05-03T08:12:03Z</time></trkpt>
<trkpt lat="49.637682" lon="5.850513"><time>2026-05-03T08:22:03Z</time></trkpt>
</trkseg></trk>
<trk>
<name>xmyhd4</name>
<cmt>s</cmt>
<desc>Hondelange Chemin n°4 </desc>
<link href="https://chemins.be/hondelange/chemin/4"/><trkseg>
<trkpt lat="49.637682" lon="5.850513"><time>2026-05-03T08:22:03Z</time></trkpt>
<trkpt lat="49.638228" lon="5.849284"><time>2026-05-03T08:32:03Z</time></trkpt>
<trkpt lat="49.639332" lon="5.845994"><time>2026-05-03T08:42:03Z</time></trkpt>
</trkseg>
</trk>
<trk>
<name>xmyhd42</name>
<cmt>q</cmt>
<desc>Hondelange Sentier n°42 </desc>
<link href="https://chemins.be/hondelange/sentier/42"/><trkseg>
<trkpt lat="49.634063" lon="5.800685"><time>2026-05-03T07:12:03Z</time></trkpt>
<trkpt lat="49.634030" lon="5.801208"><time>2026-05-03T07:22:03Z</time></trkpt>
<trkpt lat="49.634680" lon="5.805843"><time>2026-05-03T07:32:03Z</time></trkpt>
<trkpt lat="49.634942" lon="5.808967"><time>2026-05-03T07:42:03Z</time></trkpt>
<trkpt lat="49.635247" lon="5.811783"><time>2026-05-03T07:52:03Z</time></trkpt>
</trkseg>
</trk>
<trk>
<name>xmyhd45</name>
<cmt>v</cmt>
<desc>Hondelange Sentier n°45 </desc>
<link href="https://chemins.be/hondelange/sentier/45"/><trkseg>
<trkpt lat="49.629195" lon="5.788470"><time>2026-05-03T07:12:03Z</time></trkpt>
<trkpt lat="49.631118" lon="5.786732"><time>2026-05-03T07:22:03Z</time></trkpt>
<trkpt lat="49.632228" lon="5.783536"><time>2026-05-03T07:32:03Z</time></trkpt>
</trkseg></trk>
<trk>
<name>xmyhd45</name>
<cmt>q</cmt>
<desc>Hondelange Sentier n°45 </desc>
<link href="https://chemins.be/hondelange/sentier/45"/><trkseg>
<trkpt lat="49.632228" lon="5.783536"><time>2026-05-03T07:32:03Z</time></trkpt>
<trkpt lat="49.633457" lon="5.781525"><time>2026-05-03T07:42:03Z</time></trkpt>
</trkseg>
</trk>
<trk>
<name>xmyhd46</name>
<cmt>r</cmt>
<desc>Hondelange Sentier n°46 </desc>
<link href="https://chemins.be/hondelange/sentier/46"/><trkseg>
<trkpt lat="49.627856" lon="5.866160"><time>2026-05-03T07:12:03Z</time></trkpt>
<trkpt lat="49.629958" lon="5.866536"><time>2026-05-03T07:22:03Z</time></trkpt>
<trkpt lat="49.630563" lon="5.866713"><time>2026-05-03T07:32:03Z</time></trkpt>
</trkseg>
</trk>
<trk>
<name>xmyhd47</name>
<cmt>q</cmt>
<desc>Hondelange Sentier n°47 </desc>
<link href="https://chemins.be/hondelange/sentier/47"/><trkseg>
<trkpt lat="49.633291" lon="5.836715"><time>2026-05-03T07:12:03Z</time></trkpt>
<trkpt lat="49.632530" lon="5.839021"><time>2026-05-03T07:22:03Z</time></trkpt>
<trkpt lat="49.630809" lon="5.846207"><time>2026-05-03T07:32:03Z</time></trkpt>
</trkseg></trk>
<trk>
<name>xmyhd47</name>
<cmt>s</cmt>
<desc>Hondelange Sentier n°47 </desc>
<link href="https://chemins.be/hondelange/sentier/47"/><trkseg>
<trkpt lat="49.630809" lon="5.846207"><time>2026-05-03T07:32:03Z</time></trkpt>
<trkpt lat="49.630684" lon="5.846583"><time>2026-05-03T07:42:03Z</time></trkpt>
</trkseg></trk>
<trk>
<name>xmyhd47</name>
<cmt>q</cmt>
<desc>Hondelange Sentier n°47 </desc>
<link href="https://chemins.be/hondelange/sentier/47"/><trkseg>
<trkpt lat="49.630684" lon="5.846583"><time>2026-05-03T07:42:03Z</time></trkpt>
<trkpt lat="49.629301" lon="5.850906"><time>2026-05-03T07:52:03Z</time></trkpt>
</trkseg>
</trk>
<trk>
<name>xmyhd49</name>
<cmt>q</cmt>
<desc>Hondelange Sentier n°49 </desc>
<link href="https://chemins.be/hondelange/sentier/49"/><trkseg>
<trkpt lat="49.658514" lon="5.799558"><time>2026-05-03T07:12:03Z</time></trkpt>
<trkpt lat="49.657957" lon="5.805455"><time>2026-05-03T07:22:03Z</time></trkpt>
<trkpt lat="49.657706" lon="5.807014"><time>2026-05-03T07:32:03Z</time></trkpt>
<trkpt lat="49.657500" lon="5.807914"><time>2026-05-03T07:42:03Z</time></trkpt>
<trkpt lat="49.656922" lon="5.811880"><time>2026-05-03T07:52:03Z</time></trkpt>
<trkpt lat="49.657255" lon="5.813382"><time>2026-05-03T08:02:03Z</time></trkpt>
</trkseg>
</trk>
<trk>
<name>xmyhd51</name>
<cmt>q</cmt>
<desc>Hondelange Sentier n°51 </desc>
<link href="https://chemins.be/hondelange/sentier/51"/><trkseg>
<trkpt lat="49.634029" lon="5.798249"><time>2026-05-03T07:12:03Z</time></trkpt>
<trkpt lat="49.634898" lon="5.798732"><time>2026-05-03T07:22:03Z</time></trkpt>
<trkpt lat="49.635877" lon="5.799140"><time>2026-05-03T07:32:03Z</time></trkpt>
<trkpt lat="49.636294" lon="5.798550"><time>2026-05-03T07:42:03Z</time></trkpt>
<trkpt lat="49.636864" lon="5.798721"><time>2026-05-03T07:52:03Z</time></trkpt>
<trkpt lat="49.637420" lon="5.799204"><time>2026-05-03T08:02:03Z</time></trkpt>
<trkpt lat="49.638108" lon="5.799086"><time>2026-05-03T08:12:03Z</time></trkpt>
</trkseg>
</trk>
<trk>
<name>xmyhd7</name>
<cmt>v</cmt>
<desc>Hondelange Chemin n°7 </desc>
<link href="https://chemins.be/hondelange/chemin/7"/><trkseg>
<trkpt lat="49.633577" lon="5.851421"><time>2026-05-03T07:12:03Z</time></trkpt>
<trkpt lat="49.633543" lon="5.854661"><time>2026-05-03T07:22:03Z</time></trkpt>
<trkpt lat="49.632577" lon="5.858545"><time>2026-05-03T07:32:03Z</time></trkpt>
</trkseg>
</trk>
<trk>
<name>xmyhdi1</name>
<cmt>v</cmt>
<desc>Hondelange Chemin n°i1 </desc>
<link href="https://chemins.be/hondelange/chemin/i1"/><trkseg>
<trkpt lat="49.623344" lon="5.836240"><time>2026-05-03T07:12:03Z</time></trkpt>
<trkpt lat="49.624571" lon="5.837393"><time>2026-05-03T07:22:03Z</time></trkpt>
<trkpt lat="49.625356" lon="5.839223"><time>2026-05-03T07:32:03Z</time></trkpt>
<trkpt lat="49.626180" lon="5.840982"><time>2026-05-03T07:42:03Z</time></trkpt>
<trkpt lat="49.626350" lon="5.842388"><time>2026-05-03T07:52:03Z</time></trkpt>
</trkseg>
</trk>
<trk>
<name>xmyhdi2</name>
<cmt>v</cmt>
<desc>Hondelange Chemin n°i2 </desc>
<link href="https://chemins.be/hondelange/chemin/i2"/><trkseg>
<trkpt lat="49.634612" lon="5.854844"><time>2026-05-03T07:12:03Z</time></trkpt>
<trkpt lat="49.633504" lon="5.854522"><time>2026-05-03T07:22:03Z</time></trkpt>
</trkseg>
</trk>
<trk>
<name>xmyhdi3</name>
<cmt>v</cmt>
<desc>Hondelange Chemin n°i3 </desc>
<link href="https://chemins.be/hondelange/chemin/i3"/><trkseg>
<trkpt lat="49.634207" lon="5.847527"><time>2026-05-03T07:12:03Z</time></trkpt>
<trkpt lat="49.634784" lon="5.847623"><time>2026-05-03T07:22:03Z</time></trkpt>
<trkpt lat="49.635013" lon="5.847795"><time>2026-05-03T07:32:03Z</time></trkpt>
</trkseg>
</trk>
<trk>
<name>xmyhdi4</name>
<cmt>v</cmt>
<desc>Hondelange Chemin n°i4 </desc>
<link href="https://chemins.be/hondelange/chemin/i4"/><trkseg>
<trkpt lat="49.628367" lon="5.846862"><time>2026-05-03T07:12:03Z</time></trkpt>
<trkpt lat="49.628430" lon="5.847838"><time>2026-05-03T07:22:03Z</time></trkpt>
<trkpt lat="49.627920" lon="5.850509"><time>2026-05-03T07:32:03Z</time></trkpt>
<trkpt lat="49.627448" lon="5.851234"><time>2026-05-03T07:42:03Z</time></trkpt>
<trkpt lat="49.627076" lon="5.851496"><time>2026-05-03T07:52:03Z</time></trkpt>
<trkpt lat="49.624583" lon="5.852411"><time>2026-05-03T08:02:03Z</time></trkpt>
<trkpt lat="49.624181" lon="5.852559"><time>2026-05-03T08:12:03Z</time></trkpt>
</trkseg>
</trk>
<trk>
<name>xmyhdi5</name>
<cmt>v</cmt>
<desc>Hondelange Chemin n°i5 </desc>
<link href="https://chemins.be/hondelange/chemin/i5"/><trkseg>
<trkpt lat="49.627149" lon="5.841969"><time>2026-05-03T07:12:03Z</time></trkpt>
<trkpt lat="49.626871" lon="5.841830"><time>2026-05-03T07:22:03Z</time></trkpt>
<trkpt lat="49.625143" lon="5.838116"><time>2026-05-03T07:32:03Z</time></trkpt>
<trkpt lat="49.624263" lon="5.836224"><time>2026-05-03T07:42:03Z</time></trkpt>
<trkpt lat="49.624041" lon="5.835626"><time>2026-05-03T07:52:03Z</time></trkpt>
<trkpt lat="49.623703" lon="5.835242"><time>2026-05-03T08:02:03Z</time></trkpt>
<trkpt lat="49.622465" lon="5.833129"><time>2026-05-03T08:12:03Z</time></trkpt>
</trkseg>
</trk>
<trk>
<name>xmyhdi6</name>
<cmt>v</cmt>
<desc>Hondelange Chemin n°i6 </desc>
<link href="https://chemins.be/hondelange/chemin/i6"/><trkseg>
<trkpt lat="49.648102" lon="5.794408"><time>2026-05-03T07:12:03Z</time></trkpt>
<trkpt lat="49.647158" lon="5.799429"><time>2026-05-03T07:22:03Z</time></trkpt>
</trkseg>
</trk>
</gpx>